sensor_id;sensor_type;location;lat;lon;timestamp;temperature;humidity
35633;DHT22;21754;48.216;-1.628;2022-07-12T00:01:08;25.80;98.90
35633;DHT22;21754;48.216;-1.628;2022-07-12T00:03:34;25.70;98.80
35633;DHT22;21754;48.216;-1.628;2022-07-12T00:06:00;25.70;98.80
35633;DHT22;21754;48.216;-1.628;2022-07-12T00:08:27;25.70;99.00
35633;DHT22;21754;48.216;-1.628;2022-07-12T00:10:53;25.60;99.10
35633;DHT22;21754;48.216;-1.628;2022-07-12T00:13:19;25.60;99.90
35633;DHT22;21754;48.216;-1.628;2022-07-12T00:15:44;25.50;99.90
35633;DHT22;21754;48.216;-1.628;2022-07-12T00:18:10;25.30;99.90
35633;DHT22;21754;48.216;-1.628;2022-07-12T00:20:36;25.10;99.90
35633;DHT22;21754;48.216;-1.628;2022-07-12T00:23:03;25.00;99.90
35633;DHT22;21754;48.216;-1.628;2022-07-12T00:25:28;24.90;99.90
35633;DHT22;21754;48.216;-1.628;2022-07-12T00:27:54;24.90;99.90
35633;DHT22;21754;48.216;-1.628;2022-07-12T00:30:21;24.90;99.90
35633;DHT22;21754;48.216;-1.628;2022-07-12T00:32:48;24.90;99.90
35633;DHT22;21754;48.216;-1.628;2022-07-12T00:35:14;24.90;99.90
35633;DHT22;21754;48.216;-1.628;2022-07-12T00:37:40;24.90;99.90
35633;DHT22;21754;48.216;-1.628;2022-07-12T00:40:07;24.90;99.90
35633;DHT22;21754;48.216;-1.628;2022-07-12T00:42:34;24.90;99.90
35633;DHT22;21754;48.216;-1.628;2022-07-12T00:45:01;24.90;99.90
35633;DHT22;21754;48.216;-1.628;2022-07-12T00:47:35;24.90;99.90
35633;DHT22;21754;48.216;-1.628;2022-07-12T00:50:15;24.90;99.90
35633;DHT22;21754;48.216;-1.628;2022-07-12T00:52:42;24.90;99.90
35633;DHT22;21754;48.216;-1.628;2022-07-12T00:55:09;24.90;99.90
35633;DHT22;21754;48.216;-1.628;2022-07-12T00:57:36;24.80;99.90
35633;DHT22;21754;48.216;-1.628;2022-07-12T01:00:04;24.80;99.90
35633;DHT22;21754;48.216;-1.628;2022-07-12T01:02:31;24.70;99.90
35633;DHT22;21754;48.216;-1.628;2022-07-12T01:04:58;24.60;99.90
35633;DHT22;21754;48.216;-1.628;2022-07-12T01:07:25;24.50;99.90
35633;DHT22;21754;48.216;-1.628;2022-07-12T01:09:52;24.50;99.90
35633;DHT22;21754;48.216;-1.628;2022-07-12T01:12:19;24.50;99.90
35633;DHT22;21754;48.216;-1.628;2022-07-12T01:14:46;24.40;99.90
35633;DHT22;21754;48.216;-1.628;2022-07-12T01:17:12;24.40;99.90
35633;DHT22;21754;48.216;-1.628;2022-07-12T01:19:39;24.30;99.90
35633;DHT22;21754;48.216;-1.628;2022-07-12T01:22:10;24.30;99.90
35633;DHT22;21754;48.216;-1.628;2022-07-12T01:24:39;24.30;99.90
35633;DHT22;21754;48.216;-1.628;2022-07-12T01:27:06;24.30;99.90
35633;DHT22;21754;48.216;-1.628;2022-07-12T01:29:31;24.30;99.90
35633;DHT22;21754;48.216;-1.628;2022-07-12T01:32:00;24.20;99.90
35633;DHT22;21754;48.216;-1.628;2022-07-12T01:34:45;24.20;99.90
35633;DHT22;21754;48.216;-1.628;2022-07-12T01:37:14;24.20;99.90
35633;DHT22;21754;48.216;-1.628;2022-07-12T01:39:39;24.20;99.90
35633;DHT22;21754;48.216;-1.628;2022-07-12T01:42:05;24.20;99.90
35633;DHT22;21754;48.216;-1.628;2022-07-12T01:44:31;24.10;99.90
35633;DHT22;21754;48.216;-1.628;2022-07-12T01:46:58;24.10;99.90
35633;DHT22;21754;48.216;-1.628;2022-07-12T01:49:24;23.90;99.90
35633;DHT22;21754;48.216;-1.628;2022-07-12T01:51:49;23.80;99.90
35633;DHT22;21754;48.216;-1.628;2022-07-12T01:54:15;23.80;99.90
35633;DHT22;21754;48.216;-1.628;2022-07-12T01:56:41;23.70;99.90
35633;DHT22;21754;48.216;-1.628;2022-07-12T01:59:07;23.60;99.90
35633;DHT22;21754;48.216;-1.628;2022-07-12T02:01:34;23.60;99.90
35633;DHT22;21754;48.216;-1.628;2022-07-12T02:04:05;23.60;99.90
35633;DHT22;21754;48.216;-1.628;2022-07-12T02:06:30;23.50;99.90
35633;DHT22;21754;48.216;-1.628;2022-07-12T02:08:56;23.50;99.90
35633;DHT22;21754;48.216;-1.628;2022-07-12T02:11:22;23.60;99.90
35633;DHT22;21754;48.216;-1.628;2022-07-12T02:13:48;23.50;99.90
35633;DHT22;21754;48.216;-1.628;2022-07-12T02:16:13;23.40;99.90
35633;DHT22;21754;48.216;-1.628;2022-07-12T02:18:39;23.40;99.90
35633;DHT22;21754;48.216;-1.628;2022-07-12T02:21:05;23.30;99.90
35633;DHT22;21754;48.216;-1.628;2022-07-12T02:23:30;23.30;99.90
35633;DHT22;21754;48.216;-1.628;2022-07-12T02:25:56;23.20;99.90
35633;DHT22;21754;48.216;-1.628;2022-07-12T02:28:22;23.20;99.90
35633;DHT22;21754;48.216;-1.628;2022-07-12T02:30:47;23.20;99.90
35633;DHT22;21754;48.216;-1.628;2022-07-12T02:33:13;23.20;99.90
35633;DHT22;21754;48.216;-1.628;2022-07-12T02:35:44;23.20;99.90
35633;DHT22;21754;48.216;-1.628;2022-07-12T02:38:10;23.30;99.90
35633;DHT22;21754;48.216;-1.628;2022-07-12T02:40:36;23.30;99.90
35633;DHT22;21754;48.216;-1.628;2022-07-12T02:43:23;23.30;99.90
35633;DHT22;21754;48.216;-1.628;2022-07-12T02:45:53;23.20;99.90
35633;DHT22;21754;48.216;-1.628;2022-07-12T02:48:19;23.10;99.90
35633;DHT22;21754;48.216;-1.628;2022-07-12T02:50:45;23.00;99.90
35633;DHT22;21754;48.216;-1.628;2022-07-12T02:53:11;23.00;99.90
35633;DHT22;21754;48.216;-1.628;2022-07-12T02:55:37;23.00;99.90
35633;DHT22;21754;48.216;-1.628;2022-07-12T02:58:04;23.00;99.90
35633;DHT22;21754;48.216;-1.628;2022-07-12T03:00:31;23.00;99.90
35633;DHT22;21754;48.216;-1.628;2022-07-12T03:02:57;23.00;99.90
35633;DHT22;21754;48.216;-1.628;2022-07-12T03:05:23;23.00;99.90
35633;DHT22;21754;48.216;-1.628;2022-07-12T03:07:48;23.10;99.90
35633;DHT22;21754;48.216;-1.628;2022-07-12T03:10:14;23.10;99.90
35633;DHT22;21754;48.216;-1.628;2022-07-12T03:12:40;23.10;99.90
35633;DHT22;21754;48.216;-1.628;2022-07-12T03:15:06;23.20;99.90
35633;DHT22;21754;48.216;-1.628;2022-07-12T03:17:33;23.20;99.90
35633;DHT22;21754;48.216;-1.628;2022-07-12T03:19:58;23.20;99.90
35633;DHT22;21754;48.216;-1.628;2022-07-12T03:22:24;23.10;99.90
35633;DHT22;21754;48.216;-1.628;2022-07-12T03:24:50;23.10;99.90
35633;DHT22;21754;48.216;-1.628;2022-07-12T03:27:17;23.00;99.90
35633;DHT22;21754;48.216;-1.628;2022-07-12T03:29:42;23.00;99.90
35633;DHT22;21754;48.216;-1.628;2022-07-12T03:32:08;22.90;99.90
35633;DHT22;21754;48.216;-1.628;2022-07-12T03:34:34;22.90;99.90
35633;DHT22;21754;48.216;-1.628;2022-07-12T03:36:59;22.80;99.90
35633;DHT22;21754;48.216;-1.628;2022-07-12T03:39:25;22.80;99.90
35633;DHT22;21754;48.216;-1.628;2022-07-12T03:41:51;22.80;99.90
35633;DHT22;21754;48.216;-1.628;2022-07-12T03:44:17;22.70;99.90
35633;DHT22;21754;48.216;-1.628;2022-07-12T03:46:42;22.70;99.90
35633;DHT22;21754;48.216;-1.628;2022-07-12T03:49:08;22.70;99.90
35633;DHT22;21754;48.216;-1.628;2022-07-12T03:51:34;22.60;99.90
35633;DHT22;21754;48.216;-1.628;2022-07-12T03:53:59;22.60;99.90
35633;DHT22;21754;48.216;-1.628;2022-07-12T03:56:25;22.50;99.90
35633;DHT22;21754;48.216;-1.628;2022-07-12T03:59:09;22.50;99.90
35633;DHT22;21754;48.216;-1.628;2022-07-12T04:01:35;22.50;99.90
35633;DHT22;21754;48.216;-1.628;2022-07-12T04:04:01;22.40;99.90
35633;DHT22;21754;48.216;-1.628;2022-07-12T04:06:28;22.40;99.90
35633;DHT22;21754;48.216;-1.628;2022-07-12T04:08:53;22.40;99.90
35633;DHT22;21754;48.216;-1.628;2022-07-12T04:11:19;22.30;99.90
35633;DHT22;21754;48.216;-1.628;2022-07-12T04:13:45;22.30;99.90
35633;DHT22;21754;48.216;-1.628;2022-07-12T04:16:10;22.30;99.90
35633;DHT22;21754;48.216;-1.628;2022-07-12T04:18:36;22.40;99.90
35633;DHT22;21754;48.216;-1.628;2022-07-12T04:21:01;22.40;99.90
35633;DHT22;21754;48.216;-1.628;2022-07-12T04:23:27;22.40;99.90
35633;DHT22;21754;48.216;-1.628;2022-07-12T04:25:53;22.30;99.90
35633;DHT22;21754;48.216;-1.628;2022-07-12T04:28:18;22.30;99.90
35633;DHT22;21754;48.216;-1.628;2022-07-12T04:30:44;22.30;99.90
35633;DHT22;21754;48.216;-1.628;2022-07-12T04:33:12;22.30;99.90
35633;DHT22;21754;48.216;-1.628;2022-07-12T04:35:37;22.30;99.90
35633;DHT22;21754;48.216;-1.628;2022-07-12T04:38:03;22.30;99.90
35633;DHT22;21754;48.216;-1.628;2022-07-12T04:40:30;22.30;99.90
35633;DHT22;21754;48.216;-1.628;2022-07-12T04:42:55;22.40;99.90
35633;DHT22;21754;48.216;-1.628;2022-07-12T04:45:21;22.40;99.90
35633;DHT22;21754;48.216;-1.628;2022-07-12T04:47:47;22.40;99.90
35633;DHT22;21754;48.216;-1.628;2022-07-12T04:50:12;22.40;99.90
35633;DHT22;21754;48.216;-1.628;2022-07-12T04:52:38;22.40;99.90
35633;DHT22;21754;48.216;-1.628;2022-07-12T04:55:07;22.40;99.90
35633;DHT22;21754;48.216;-1.628;2022-07-12T04:57:33;22.40;99.90
35633;DHT22;21754;48.216;-1.628;2022-07-12T04:59:58;22.40;99.90
35633;DHT22;21754;48.216;-1.628;2022-07-12T05:02:24;22.50;99.90
35633;DHT22;21754;48.216;-1.628;2022-07-12T05:04:50;22.50;99.90
35633;DHT22;21754;48.216;-1.628;2022-07-12T05:07:15;22.50;99.90
35633;DHT22;21754;48.216;-1.628;2022-07-12T05:09:41;22.50;99.90
35633;DHT22;21754;48.216;-1.628;2022-07-12T05:12:07;22.40;99.90
35633;DHT22;21754;48.216;-1.628;2022-07-12T05:14:33;22.40;99.90
35633;DHT22;21754;48.216;-1.628;2022-07-12T05:16:58;22.30;99.90
35633;DHT22;21754;48.216;-1.628;2022-07-12T05:19:24;22.30;99.90
35633;DHT22;21754;48.216;-1.628;2022-07-12T05:21:50;22.30;99.90
35633;DHT22;21754;48.216;-1.628;2022-07-12T05:24:16;22.30;99.90
35633;DHT22;21754;48.216;-1.628;2022-07-12T05:26:41;22.30;99.90
35633;DHT22;21754;48.216;-1.628;2022-07-12T05:29:07;22.40;99.90
35633;DHT22;21754;48.216;-1.628;2022-07-12T05:31:33;22.40;99.90
35633;DHT22;21754;48.216;-1.628;2022-07-12T05:33:59;22.40;99.90
35633;DHT22;21754;48.216;-1.628;2022-07-12T05:36:25;22.50;99.90
35633;DHT22;21754;48.216;-1.628;2022-07-12T05:38:51;22.50;99.90
35633;DHT22;21754;48.216;-1.628;2022-07-12T05:41:17;22.50;99.90
35633;DHT22;21754;48.216;-1.628;2022-07-12T05:43:42;22.60;99.90
35633;DHT22;21754;48.216;-1.628;2022-07-12T05:46:09;22.60;99.90
35633;DHT22;21754;48.216;-1.628;2022-07-12T05:48:36;22.70;99.90
35633;DHT22;21754;48.216;-1.628;2022-07-12T05:51:02;22.80;99.90
35633;DHT22;21754;48.216;-1.628;2022-07-12T05:53:46;22.90;99.90
35633;DHT22;21754;48.216;-1.628;2022-07-12T05:56:12;23.00;99.90
35633;DHT22;21754;48.216;-1.628;2022-07-12T05:58:39;23.10;99.90
35633;DHT22;21754;48.216;-1.628;2022-07-12T06:01:05;23.10;99.90
35633;DHT22;21754;48.216;-1.628;2022-07-12T06:03:31;23.20;99.90
35633;DHT22;21754;48.216;-1.628;2022-07-12T06:05:56;23.30;99.90
35633;DHT22;21754;48.216;-1.628;2022-07-12T06:08:22;23.40;99.90
35633;DHT22;21754;48.216;-1.628;2022-07-12T06:10:47;23.50;99.90
35633;DHT22;21754;48.216;-1.628;2022-07-12T06:13:13;23.60;99.90
35633;DHT22;21754;48.216;-1.628;2022-07-12T06:15:39;23.60;99.90
35633;DHT22;21754;48.216;-1.628;2022-07-12T06:18:05;23.70;99.90
35633;DHT22;21754;48.216;-1.628;2022-07-12T06:20:31;23.80;99.90
35633;DHT22;21754;48.216;-1.628;2022-07-12T06:22:56;23.80;99.90
35633;DHT22;21754;48.216;-1.628;2022-07-12T06:25:23;23.90;99.90
35633;DHT22;21754;48.216;-1.628;2022-07-12T06:27:49;24.00;99.90
35633;DHT22;21754;48.216;-1.628;2022-07-12T06:30:18;24.10;99.90
35633;DHT22;21754;48.216;-1.628;2022-07-12T06:32:48;24.20;99.90
35633;DHT22;21754;48.216;-1.628;2022-07-12T06:35:14;24.30;99.90
35633;DHT22;21754;48.216;-1.628;2022-07-12T06:37:40;24.40;99.90
35633;DHT22;21754;48.216;-1.628;2022-07-12T06:40:07;24.50;99.90
35633;DHT22;21754;48.216;-1.628;2022-07-12T06:42:33;24.60;99.90
35633;DHT22;21754;48.216;-1.628;2022-07-12T06:44:59;24.60;99.90
35633;DHT22;21754;48.216;-1.628;2022-07-12T06:47:24;24.70;99.90
35633;DHT22;21754;48.216;-1.628;2022-07-12T06:49:51;24.80;99.90
35633;DHT22;21754;48.216;-1.628;2022-07-12T06:52:17;24.90;99.90
35633;DHT22;21754;48.216;-1.628;2022-07-12T06:54:42;25.00;99.90
35633;DHT22;21754;48.216;-1.628;2022-07-12T06:57:08;25.10;99.90
35633;DHT22;21754;48.216;-1.628;2022-07-12T06:59:33;25.20;99.90
35633;DHT22;21754;48.216;-1.628;2022-07-12T07:01:59;25.20;99.90
35633;DHT22;21754;48.216;-1.628;2022-07-12T07:04:25;25.30;99.90
35633;DHT22;21754;48.216;-1.628;2022-07-12T07:06:51;25.40;99.90
35633;DHT22;21754;48.216;-1.628;2022-07-12T07:09:17;25.40;99.90
35633;DHT22;21754;48.216;-1.628;2022-07-12T07:11:43;25.50;99.90
35633;DHT22;21754;48.216;-1.628;2022-07-12T07:14:09;25.50;99.90
35633;DHT22;21754;48.216;-1.628;2022-07-12T07:16:34;25.50;99.90
35633;DHT22;21754;48.216;-1.628;2022-07-12T07:19:01;25.70;99.90
35633;DHT22;21754;48.216;-1.628;2022-07-12T07:21:28;25.70;99.90
35633;DHT22;21754;48.216;-1.628;2022-07-12T07:23:53;25.80;99.90
35633;DHT22;21754;48.216;-1.628;2022-07-12T07:26:21;25.90;99.90
35633;DHT22;21754;48.216;-1.628;2022-07-12T07:28:47;25.90;99.90
35633;DHT22;21754;48.216;-1.628;2022-07-12T07:31:35;26.00;99.90
35633;DHT22;21754;48.216;-1.628;2022-07-12T07:34:01;26.10;99.90
35633;DHT22;21754;48.216;-1.628;2022-07-12T07:36:27;26.10;99.90
35633;DHT22;21754;48.216;-1.628;2022-07-12T07:38:52;26.20;99.90
35633;DHT22;21754;48.216;-1.628;2022-07-12T07:41:18;26.30;99.90
35633;DHT22;21754;48.216;-1.628;2022-07-12T07:43:44;26.30;99.90
35633;DHT22;21754;48.216;-1.628;2022-07-12T07:46:09;26.40;99.90
35633;DHT22;21754;48.216;-1.628;2022-07-12T07:48:35;26.40;99.90
35633;DHT22;21754;48.216;-1.628;2022-07-12T07:51:01;26.50;99.90
35633;DHT22;21754;48.216;-1.628;2022-07-12T07:53:27;26.60;99.90
35633;DHT22;21754;48.216;-1.628;2022-07-12T07:55:52;26.60;99.90
35633;DHT22;21754;48.216;-1.628;2022-07-12T07:58:18;26.70;99.90
35633;DHT22;21754;48.216;-1.628;2022-07-12T08:00:46;26.80;99.90
35633;DHT22;21754;48.216;-1.628;2022-07-12T08:03:12;26.90;99.90
35633;DHT22;21754;48.216;-1.628;2022-07-12T08:05:38;26.90;99.90
35633;DHT22;21754;48.216;-1.628;2022-07-12T08:08:04;27.00;99.90
35633;DHT22;21754;48.216;-1.628;2022-07-12T08:10:29;27.00;99.90
35633;DHT22;21754;48.216;-1.628;2022-07-12T08:12:55;27.10;99.90
35633;DHT22;21754;48.216;-1.628;2022-07-12T08:15:21;27.10;99.90
35633;DHT22;21754;48.216;-1.628;2022-07-12T08:17:47;27.20;99.90
35633;DHT22;21754;48.216;-1.628;2022-07-12T08:20:12;27.30;99.90
35633;DHT22;21754;48.216;-1.628;2022-07-12T08:22:43;27.40;99.90
35633;DHT22;21754;48.216;-1.628;2022-07-12T08:25:09;27.50;99.90
35633;DHT22;21754;48.216;-1.628;2022-07-12T08:27:35;27.50;99.90
35633;DHT22;21754;48.216;-1.628;2022-07-12T08:30:01;27.60;99.90
35633;DHT22;21754;48.216;-1.628;2022-07-12T08:32:26;27.60;99.90
35633;DHT22;21754;48.216;-1.628;2022-07-12T08:34:52;27.70;99.90
35633;DHT22;21754;48.216;-1.628;2022-07-12T08:37:18;27.80;99.90
35633;DHT22;21754;48.216;-1.628;2022-07-12T08:39:43;27.90;99.90
35633;DHT22;21754;48.216;-1.628;2022-07-12T08:42:14;27.90;99.90
35633;DHT22;21754;48.216;-1.628;2022-07-12T08:44:40;28.00;99.90
35633;DHT22;21754;48.216;-1.628;2022-07-12T08:47:08;28.10;99.90
35633;DHT22;21754;48.216;-1.628;2022-07-12T08:49:33;28.10;99.90
35633;DHT22;21754;48.216;-1.628;2022-07-12T08:51:59;28.30;99.90
35633;DHT22;21754;48.216;-1.628;2022-07-12T08:54:25;28.40;99.90
35633;DHT22;21754;48.216;-1.628;2022-07-12T08:56:50;28.40;99.90
35633;DHT22;21754;48.216;-1.628;2022-07-12T08:59:17;28.50;99.90
35633;DHT22;21754;48.216;-1.628;2022-07-12T09:01:48;28.60;99.90
35633;DHT22;21754;48.216;-1.628;2022-07-12T09:04:20;28.70;99.90
35633;DHT22;21754;48.216;-1.628;2022-07-12T09:06:46;28.70;99.90
35633;DHT22;21754;48.216;-1.628;2022-07-12T09:09:29;28.80;99.90
35633;DHT22;21754;48.216;-1.628;2022-07-12T09:11:55;28.80;99.90
35633;DHT22;21754;48.216;-1.628;2022-07-12T09:14:21;28.90;99.90
35633;DHT22;21754;48.216;-1.628;2022-07-12T09:17:07;28.90;99.90
35633;DHT22;21754;48.216;-1.628;2022-07-12T09:19:39;29.00;99.90
35633;DHT22;21754;48.216;-1.628;2022-07-12T09:22:14;29.10;99.90
35633;DHT22;21754;48.216;-1.628;2022-07-12T09:24:42;29.10;99.90
35633;DHT22;21754;48.216;-1.628;2022-07-12T09:27:07;29.20;99.90
35633;DHT22;21754;48.216;-1.628;2022-07-12T09:29:49;29.30;99.90
35633;DHT22;21754;48.216;-1.628;2022-07-12T09:32:15;29.30;99.90
35633;DHT22;21754;48.216;-1.628;2022-07-12T09:34:59;29.30;99.90
35633;DHT22;21754;48.216;-1.628;2022-07-12T09:37:44;29.50;99.90
35633;DHT22;21754;48.216;-1.628;2022-07-12T09:40:10;29.60;99.90
35633;DHT22;21754;48.216;-1.628;2022-07-12T09:42:36;29.70;99.90
35633;DHT22;21754;48.216;-1.628;2022-07-12T09:45:03;29.70;99.90
35633;DHT22;21754;48.216;-1.628;2022-07-12T09:47:30;29.80;99.90
35633;DHT22;21754;48.216;-1.628;2022-07-12T09:49:56;29.90;99.90
35633;DHT22;21754;48.216;-1.628;2022-07-12T09:52:22;30.00;99.90
35633;DHT22;21754;48.216;-1.628;2022-07-12T09:54:53;30.10;99.90
35633;DHT22;21754;48.216;-1.628;2022-07-12T09:59:50;30.20;99.90
35633;DHT22;21754;48.216;-1.628;2022-07-12T10:02:18;30.20;99.90
35633;DHT22;21754;48.216;-1.628;2022-07-12T10:04:46;30.30;99.90
35633;DHT22;21754;48.216;-1.628;2022-07-12T10:07:11;30.40;99.90
35633;DHT22;21754;48.216;-1.628;2022-07-12T10:09:44;30.50;99.90
35633;DHT22;21754;48.216;-1.628;2022-07-12T10:12:10;30.60;99.90
35633;DHT22;21754;48.216;-1.628;2022-07-12T10:14:39;30.70;99.90
35633;DHT22;21754;48.216;-1.628;2022-07-12T10:17:07;30.90;99.90
35633;DHT22;21754;48.216;-1.628;2022-07-12T10:19:37;31.00;99.90
35633;DHT22;21754;48.216;-1.628;2022-07-12T10:22:07;31.20;99.90
35633;DHT22;21754;48.216;-1.628;2022-07-12T10:29:48;31.10;97.00
35633;DHT22;21754;48.216;-1.628;2022-07-12T10:32:33;31.00;95.60
35633;DHT22;21754;48.216;-1.628;2022-07-12T10:35:09;31.20;98.90
35633;DHT22;21754;48.216;-1.628;2022-07-12T10:37:36;31.50;97.50
35633;DHT22;21754;48.216;-1.628;2022-07-12T10:42:36;31.70;96.70
35633;DHT22;21754;48.216;-1.628;2022-07-12T10:45:13;31.80;95.00
35633;DHT22;21754;48.216;-1.628;2022-07-12T10:48:02;31.90;96.20
35633;DHT22;21754;48.216;-1.628;2022-07-12T10:53:29;31.90;94.50
35633;DHT22;21754;48.216;-1.628;2022-07-12T10:58:37;32.10;92.80
35633;DHT22;21754;48.216;-1.628;2022-07-12T11:01:06;32.20;91.30
35633;DHT22;21754;48.216;-1.628;2022-07-12T11:03:38;32.20;93.00
35633;DHT22;21754;48.216;-1.628;2022-07-12T11:06:06;32.40;90.80
35633;DHT22;21754;48.216;-1.628;2022-07-12T11:08:45;32.30;90.90
35633;DHT22;21754;48.216;-1.628;2022-07-12T11:11:11;32.40;91.20
35633;DHT22;21754;48.216;-1.628;2022-07-12T11:13:37;32.40;87.70
35633;DHT22;21754;48.216;-1.628;2022-07-12T11:16:03;32.20;86.60
35633;DHT22;21754;48.216;-1.628;2022-07-12T11:18:30;32.30;90.00
35633;DHT22;21754;48.216;-1.628;2022-07-12T11:20:57;32.40;90.10
35633;DHT22;21754;48.216;-1.628;2022-07-12T11:23:27;32.50;91.10
35633;DHT22;21754;48.216;-1.628;2022-07-12T11:25:58;32.60;91.60
35633;DHT22;21754;48.216;-1.628;2022-07-12T11:28:25;32.70;90.50
35633;DHT22;21754;48.216;-1.628;2022-07-12T11:30:51;32.70;84.60
35633;DHT22;21754;48.216;-1.628;2022-07-12T11:33:17;32.70;86.30
35633;DHT22;21754;48.216;-1.628;2022-07-12T11:35:44;32.80;85.70
35633;DHT22;21754;48.216;-1.628;2022-07-12T11:38:10;32.80;83.80
35633;DHT22;21754;48.216;-1.628;2022-07-12T11:40:36;32.90;79.60
35633;DHT22;21754;48.216;-1.628;2022-07-12T11:43:03;33.10;80.80
35633;DHT22;21754;48.216;-1.628;2022-07-12T11:45:31;33.10;83.30
35633;DHT22;21754;48.216;-1.628;2022-07-12T11:48:02;33.30;79.80
35633;DHT22;21754;48.216;-1.628;2022-07-12T11:50:31;33.30;79.70
35633;DHT22;21754;48.216;-1.628;2022-07-12T11:52:59;33.40;78.90
35633;DHT22;21754;48.216;-1.628;2022-07-12T11:55:25;33.40;83.00
35633;DHT22;21754;48.216;-1.628;2022-07-12T11:57:51;33.40;86.10
35633;DHT22;21754;48.216;-1.628;2022-07-12T12:00:28;33.60;82.50
35633;DHT22;21754;48.216;-1.628;2022-07-12T12:02:53;33.50;77.50
35633;DHT22;21754;48.216;-1.628;2022-07-12T12:05:20;33.60;77.60
35633;DHT22;21754;48.216;-1.628;2022-07-12T12:07:46;33.60;81.80
35633;DHT22;21754;48.216;-1.628;2022-07-12T12:10:14;33.80;80.10
35633;DHT22;21754;48.216;-1.628;2022-07-12T12:15:13;33.90;78.80
35633;DHT22;21754;48.216;-1.628;2022-07-12T12:18:05;34.00;76.70
35633;DHT22;21754;48.216;-1.628;2022-07-12T12:20:33;34.10;75.50
35633;DHT22;21754;48.216;-1.628;2022-07-12T12:23:01;34.10;75.90
35633;DHT22;21754;48.216;-1.628;2022-07-12T12:25:29;34.20;74.90
35633;DHT22;21754;48.216;-1.628;2022-07-12T12:28:01;34.30;72.50
35633;DHT22;21754;48.216;-1.628;2022-07-12T12:30:32;34.30;72.50
35633;DHT22;21754;48.216;-1.628;2022-07-12T12:33:00;34.30;69.30
35633;DHT22;21754;48.216;-1.628;2022-07-12T12:35:39;34.30;71.70
35633;DHT22;21754;48.216;-1.628;2022-07-12T12:38:14;34.50;70.50
35633;DHT22;21754;48.216;-1.628;2022-07-12T12:40:49;34.50;71.70
35633;DHT22;21754;48.216;-1.628;2022-07-12T12:43:18;34.60;71.80
35633;DHT22;21754;48.216;-1.628;2022-07-12T12:45:52;34.70;72.20
35633;DHT22;21754;48.216;-1.628;2022-07-12T12:48:23;34.70;67.70
35633;DHT22;21754;48.216;-1.628;2022-07-12T12:50:50;34.80;66.10
35633;DHT22;21754;48.216;-1.628;2022-07-12T12:53:22;34.90;68.10
35633;DHT22;21754;48.216;-1.628;2022-07-12T12:55:52;35.10;66.10
35633;DHT22;21754;48.216;-1.628;2022-07-12T12:58:19;35.20;67.60
35633;DHT22;21754;48.216;-1.628;2022-07-12T13:00:47;35.30;69.40
35633;DHT22;21754;48.216;-1.628;2022-07-12T13:03:15;35.30;64.40
35633;DHT22;21754;48.216;-1.628;2022-07-12T13:05:42;35.30;60.30
35633;DHT22;21754;48.216;-1.628;2022-07-12T13:08:09;35.30;64.60
35633;DHT22;21754;48.216;-1.628;2022-07-12T13:10:36;35.40;64.30
35633;DHT22;21754;48.216;-1.628;2022-07-12T13:13:03;35.50;66.10
35633;DHT22;21754;48.216;-1.628;2022-07-12T13:15:29;35.60;64.00
35633;DHT22;21754;48.216;-1.628;2022-07-12T13:17:56;35.60;63.50
35633;DHT22;21754;48.216;-1.628;2022-07-12T13:20:23;35.70;62.90
35633;DHT22;21754;48.216;-1.628;2022-07-12T13:22:49;35.60;56.90
35633;DHT22;21754;48.216;-1.628;2022-07-12T13:25:15;35.60;59.10
35633;DHT22;21754;48.216;-1.628;2022-07-12T13:27:41;35.70;58.00
35633;DHT22;21754;48.216;-1.628;2022-07-12T13:30:10;35.60;54.50
35633;DHT22;21754;48.216;-1.628;2022-07-12T13:32:36;35.70;57.70
35633;DHT22;21754;48.216;-1.628;2022-07-12T13:35:03;35.80;58.10
35633;DHT22;21754;48.216;-1.628;2022-07-12T13:37:30;35.90;59.20
35633;DHT22;21754;48.216;-1.628;2022-07-12T13:39:55;36.00;57.20
35633;DHT22;21754;48.216;-1.628;2022-07-12T13:42:43;36.20;58.90
35633;DHT22;21754;48.216;-1.628;2022-07-12T13:45:12;36.40;59.20
35633;DHT22;21754;48.216;-1.628;2022-07-12T13:47:38;36.60;59.10
35633;DHT22;21754;48.216;-1.628;2022-07-12T13:50:06;36.60;56.30
35633;DHT22;21754;48.216;-1.628;2022-07-12T13:52:31;36.50;56.70
35633;DHT22;21754;48.216;-1.628;2022-07-12T13:54:57;36.40;58.10
35633;DHT22;21754;48.216;-1.628;2022-07-12T13:57:23;36.40;58.90
35633;DHT22;21754;48.216;-1.628;2022-07-12T13:59:49;36.40;58.80
35633;DHT22;21754;48.216;-1.628;2022-07-12T14:02:15;36.50;56.70
35633;DHT22;21754;48.216;-1.628;2022-07-12T14:04:40;36.40;58.00
35633;DHT22;21754;48.216;-1.628;2022-07-12T14:07:06;36.50;54.70
35633;DHT22;21754;48.216;-1.628;2022-07-12T14:09:32;36.40;52.20
35633;DHT22;21754;48.216;-1.628;2022-07-12T14:11:57;36.40;55.00
35633;DHT22;21754;48.216;-1.628;2022-07-12T14:14:23;36.40;53.50
35633;DHT22;21754;48.216;-1.628;2022-07-12T14:17:08;36.40;51.90
35633;DHT22;21754;48.216;-1.628;2022-07-12T14:19:34;36.40;54.30
35633;DHT22;21754;48.216;-1.628;2022-07-12T14:21:59;36.50;54.90
35633;DHT22;21754;48.216;-1.628;2022-07-12T14:24:25;36.60;56.20
35633;DHT22;21754;48.216;-1.628;2022-07-12T14:26:50;36.70;55.50
35633;DHT22;21754;48.216;-1.628;2022-07-12T14:29:16;36.80;49.40
35633;DHT22;21754;48.216;-1.628;2022-07-12T14:31:42;36.70;50.50
35633;DHT22;21754;48.216;-1.628;2022-07-12T14:34:07;36.80;52.20
35633;DHT22;21754;48.216;-1.628;2022-07-12T14:36:33;36.90;53.20
35633;DHT22;21754;48.216;-1.628;2022-07-12T14:38:59;37.00;52.10
35633;DHT22;21754;48.216;-1.628;2022-07-12T14:41:24;37.10;50.20
35633;DHT22;21754;48.216;-1.628;2022-07-12T14:43:50;37.10;51.90
35633;DHT22;21754;48.216;-1.628;2022-07-12T14:46:16;37.20;50.80
35633;DHT22;21754;48.216;-1.628;2022-07-12T14:48:42;37.30;49.70
35633;DHT22;21754;48.216;-1.628;2022-07-12T14:51:10;37.30;50.00
35633;DHT22;21754;48.216;-1.628;2022-07-12T14:53:35;37.20;51.20
35633;DHT22;21754;48.216;-1.628;2022-07-12T14:56:01;37.40;50.90
35633;DHT22;21754;48.216;-1.628;2022-07-12T14:58:27;37.40;50.00
35633;DHT22;21754;48.216;-1.628;2022-07-12T15:00:55;37.40;49.70
35633;DHT22;21754;48.216;-1.628;2022-07-12T15:03:21;37.60;48.50
35633;DHT22;21754;48.216;-1.628;2022-07-12T15:05:47;37.60;48.70
35633;DHT22;21754;48.216;-1.628;2022-07-12T15:08:12;37.60;49.00
35633;DHT22;21754;48.216;-1.628;2022-07-12T15:10:38;37.50;47.50
35633;DHT22;21754;48.216;-1.628;2022-07-12T15:13:04;37.50;49.30
35633;DHT22;21754;48.216;-1.628;2022-07-12T15:15:30;37.40;45.90
35633;DHT22;21754;48.216;-1.628;2022-07-12T15:17:56;37.20;46.60
35633;DHT22;21754;48.216;-1.628;2022-07-12T15:20:22;37.10;46.40
35633;DHT22;21754;48.216;-1.628;2022-07-12T15:22:47;37.20;48.00
35633;DHT22;21754;48.216;-1.628;2022-07-12T15:25:13;37.20;46.30
35633;DHT22;21754;48.216;-1.628;2022-07-12T15:27:39;37.20;45.00
35633;DHT22;21754;48.216;-1.628;2022-07-12T15:30:05;37.30;47.30
35633;DHT22;21754;48.216;-1.628;2022-07-12T15:32:31;37.50;46.90
35633;DHT22;21754;48.216;-1.628;2022-07-12T15:34:56;37.60;44.20